sensor_id;sensor_type;location;lat;lon;timestamp;P1;durP1;ratioP1;P2;durP2;ratioP2
5129;SDS011;2583;50.946;6.954;2023-01-13T00:01:35;0.80;;;0.30;;
5129;SDS011;2583;50.946;6.954;2023-01-13T00:04:03;0.80;;;0.33;;
5129;SDS011;2583;50.946;6.954;2023-01-13T00:06:30;0.80;;;0.40;;
5129;SDS011;2583;50.946;6.954;2023-01-13T00:08:56;2.63;;;1.43;;
5129;SDS011;2583;50.946;6.954;2023-01-13T00:11:23;1.23;;;0.80;;
5129;SDS011;2583;50.946;6.954;2023-01-13T00:13:51;1.23;;;0.80;;
5129;SDS011;2583;50.946;6.954;2023-01-13T00:16:18;0.90;;;0.30;;
5129;SDS011;2583;50.946;6.954;2023-01-13T00:18:46;2.53;;;0.50;;
5129;SDS011;2583;50.946;6.954;2023-01-13T00:21:15;1.02;;;0.40;;
5129;SDS011;2583;50.946;6.954;2023-01-13T00:23:43;1.17;;;0.30;;
5129;SDS011;2583;50.946;6.954;2023-01-13T00:26:15;0.70;;;0.40;;
5129;SDS011;2583;50.946;6.954;2023-01-13T00:28:43;0.77;;;0.33;;
5129;SDS011;2583;50.946;6.954;2023-01-13T00:31:11;1.00;;;0.60;;
5129;SDS011;2583;50.946;6.954;2023-01-13T00:33:40;0.87;;;0.40;;
5129;SDS011;2583;50.946;6.954;2023-01-13T00:36:07;0.80;;;0.40;;
5129;SDS011;2583;50.946;6.954;2023-01-13T00:38:38;1.17;;;0.40;;
5129;SDS011;2583;50.946;6.954;2023-01-13T00:41:06;0.80;;;0.40;;
5129;SDS011;2583;50.946;6.954;2023-01-13T00:43:35;0.90;;;0.40;;
5129;SDS011;2583;50.946;6.954;2023-01-13T00:46:03;0.90;;;0.30;;
5129;SDS011;2583;50.946;6.954;2023-01-13T00:48:31;1.00;;;0.33;;
5129;SDS011;2583;50.946;6.954;2023-01-13T00:50:59;1.65;;;0.43;;
5129;SDS011;2583;50.946;6.954;2023-01-13T00:53:42;0.80;;;0.40;;
5129;SDS011;2583;50.946;6.954;2023-01-13T00:56:18;1.63;;;0.40;;
5129;SDS011;2583;50.946;6.954;2023-01-13T00:59:04;0.87;;;0.40;;
5129;SDS011;2583;50.946;6.954;2023-01-13T01:01:30;0.87;;;0.30;;
5129;SDS011;2583;50.946;6.954;2023-01-13T01:03:58;0.80;;;0.40;;
5129;SDS011;2583;50.946;6.954;2023-01-13T01:06:26;0.70;;;0.30;;
5129;SDS011;2583;50.946;6.954;2023-01-13T01:08:53;1.10;;;0.40;;
5129;SDS011;2583;50.946;6.954;2023-01-13T01:11:25;1.30;;;0.40;;
5129;SDS011;2583;50.946;6.954;2023-01-13T01:13:55;0.90;;;0.47;;
5129;SDS011;2583;50.946;6.954;2023-01-13T01:16:24;1.07;;;0.40;;
5129;SDS011;2583;50.946;6.954;2023-01-13T01:18:52;1.00;;;0.40;;
5129;SDS011;2583;50.946;6.954;2023-01-13T01:21:20;1.83;;;0.40;;
5129;SDS011;2583;50.946;6.954;2023-01-13T01:23:48;1.75;;;0.50;;
5129;SDS011;2583;50.946;6.954;2023-01-13T01:26:19;0.80;;;0.40;;
5129;SDS011;2583;50.946;6.954;2023-01-13T01:28:48;2.30;;;0.70;;
5129;SDS011;2583;50.946;6.954;2023-01-13T01:31:20;0.93;;;0.40;;
5129;SDS011;2583;50.946;6.954;2023-01-13T01:33:52;2.20;;;0.50;;
5129;SDS011;2583;50.946;6.954;2023-01-13T01:36:20;1.37;;;0.40;;
5129;SDS011;2583;50.946;6.954;2023-01-13T01:38:48;1.00;;;0.30;;
5129;SDS011;2583;50.946;6.954;2023-01-13T01:41:19;1.10;;;0.50;;
5129;SDS011;2583;50.946;6.954;2023-01-13T01:43:58;1.48;;;0.70;;
5129;SDS011;2583;50.946;6.954;2023-01-13T01:46:29;1.53;;;0.60;;
5129;SDS011;2583;50.946;6.954;2023-01-13T01:49:01;2.17;;;0.60;;
5129;SDS011;2583;50.946;6.954;2023-01-13T01:51:29;2.00;;;0.60;;
5129;SDS011;2583;50.946;6.954;2023-01-13T01:54:01;1.23;;;0.50;;
5129;SDS011;2583;50.946;6.954;2023-01-13T01:56:32;2.00;;;1.17;;
5129;SDS011;2583;50.946;6.954;2023-01-13T01:59:00;4.60;;;0.70;;
5129;SDS011;2583;50.946;6.954;2023-01-13T02:01:27;0.87;;;0.40;;
5129;SDS011;2583;50.946;6.954;2023-01-13T02:03:56;2.10;;;0.40;;
5129;SDS011;2583;50.946;6.954;2023-01-13T02:06:29;1.40;;;0.50;;
5129;SDS011;2583;50.946;6.954;2023-01-13T02:08:57;1.87;;;1.00;;
5129;SDS011;2583;50.946;6.954;2023-01-13T02:11:28;1.63;;;0.50;;
5129;SDS011;2583;50.946;6.954;2023-01-13T02:14:16;2.43;;;0.60;;
5129;SDS011;2583;50.946;6.954;2023-01-13T02:16:53;1.50;;;0.60;;
5129;SDS011;2583;50.946;6.954;2023-01-13T02:30:44;2.07;;;0.57;;
5129;SDS011;2583;50.946;6.954;2023-01-13T02:42:06;2.75;;;0.65;;
5129;SDS011;2583;50.946;6.954;2023-01-13T02:45:14;2.17;;;0.50;;
5129;SDS011;2583;50.946;6.954;2023-01-13T02:47:44;3.33;;;0.60;;
5129;SDS011;2583;50.946;6.954;2023-01-13T02:50:16;0.90;;;0.40;;
5129;SDS011;2583;50.946;6.954;2023-01-13T02:55:16;1.87;;;0.60;;
5129;SDS011;2583;50.946;6.954;2023-01-13T02:57:50;2.17;;;0.50;;
5129;SDS011;2583;50.946;6.954;2023-01-13T03:00:18;2.60;;;0.83;;
5129;SDS011;2583;50.946;6.954;2023-01-13T03:02:46;2.07;;;0.70;;
5129;SDS011;2583;50.946;6.954;2023-01-13T03:05:14;1.27;;;0.53;;
5129;SDS011;2583;50.946;6.954;2023-01-13T03:07:48;3.37;;;1.00;;
5129;SDS011;2583;50.946;6.954;2023-01-13T03:21:23;1.77;;;0.80;;
5129;SDS011;2583;50.946;6.954;2023-01-13T03:24:02;5.67;;;0.83;;
5129;SDS011;2583;50.946;6.954;2023-01-13T03:26:45;3.00;;;1.03;;
5129;SDS011;2583;50.946;6.954;2023-01-13T03:34:35;2.30;;;0.80;;
5129;SDS011;2583;50.946;6.954;2023-01-13T03:37:10;6.47;;;1.20;;
5129;SDS011;2583;50.946;6.954;2023-01-13T03:39:40;5.47;;;1.10;;
5129;SDS011;2583;50.946;6.954;2023-01-13T03:42:19;4.27;;;1.50;;
5129;SDS011;2583;50.946;6.954;2023-01-13T03:44:52;3.57;;;1.70;;
5129;SDS011;2583;50.946;6.954;2023-01-13T03:47:54;3.93;;;1.10;;
5129;SDS011;2583;50.946;6.954;2023-01-13T03:50:24;4.10;;;1.20;;
5129;SDS011;2583;50.946;6.954;2023-01-13T03:52:58;6.33;;;1.33;;
5129;SDS011;2583;50.946;6.954;2023-01-13T03:55:33;6.65;;;1.60;;
5129;SDS011;2583;50.946;6.954;2023-01-13T03:58:17;6.57;;;1.20;;
5129;SDS011;2583;50.946;6.954;2023-01-13T04:03:25;8.27;;;1.47;;
5129;SDS011;2583;50.946;6.954;2023-01-13T04:06:08;8.20;;;1.60;;
5129;SDS011;2583;50.946;6.954;2023-01-13T04:11:42;5.20;;;1.73;;
5129;SDS011;2583;50.946;6.954;2023-01-13T04:14:25;5.40;;;1.30;;
5129;SDS011;2583;50.946;6.954;2023-01-13T04:16:54;7.30;;;1.50;;
5129;SDS011;2583;50.946;6.954;2023-01-13T04:19:21;10.67;;;2.80;;
5129;SDS011;2583;50.946;6.954;2023-01-13T04:21:48;6.57;;;1.83;;
5129;SDS011;2583;50.946;6.954;2023-01-13T04:24:15;5.90;;;1.30;;
5129;SDS011;2583;50.946;6.954;2023-01-13T04:26:41;10.43;;;1.90;;
5129;SDS011;2583;50.946;6.954;2023-01-13T04:29:08;9.15;;;1.75;;
5129;SDS011;2583;50.946;6.954;2023-01-13T04:31:35;7.63;;;1.70;;
5129;SDS011;2583;50.946;6.954;2023-01-13T04:34:03;8.10;;;2.43;;
5129;SDS011;2583;50.946;6.954;2023-01-13T04:36:30;8.23;;;1.60;;
5129;SDS011;2583;50.946;6.954;2023-01-13T04:38:56;10.23;;;1.77;;
5129;SDS011;2583;50.946;6.954;2023-01-13T04:41:23;8.47;;;2.20;;
5129;SDS011;2583;50.946;6.954;2023-01-13T04:43:50;6.97;;;1.80;;
5129;SDS011;2583;50.946;6.954;2023-01-13T04:46:17;10.50;;;2.83;;
5129;SDS011;2583;50.946;6.954;2023-01-13T04:48:44;7.43;;;1.90;;
5129;SDS011;2583;50.946;6.954;2023-01-13T04:51:11;12.02;;;1.90;;
5129;SDS011;2583;50.946;6.954;2023-01-13T04:53:37;14.50;;;1.87;;
5129;SDS011;2583;50.946;6.954;2023-01-13T04:56:04;10.97;;;2.50;;
5129;SDS011;2583;50.946;6.954;2023-01-13T04:58:31;11.67;;;2.90;;
5129;SDS011;2583;50.946;6.954;2023-01-13T05:00:58;10.33;;;2.30;;
5129;SDS011;2583;50.946;6.954;2023-01-13T05:03:24;10.30;;;2.13;;
5129;SDS011;2583;50.946;6.954;2023-01-13T05:05:51;11.03;;;2.07;;
5129;SDS011;2583;50.946;6.954;2023-01-13T05:08:18;12.13;;;2.28;;
5129;SDS011;2583;50.946;6.954;2023-01-13T05:10:45;8.23;;;1.80;;
5129;SDS011;2583;50.946;6.954;2023-01-13T05:13:12;11.53;;;2.40;;
5129;SDS011;2583;50.946;6.954;2023-01-13T05:15:59;10.90;;;1.90;;
5129;SDS011;2583;50.946;6.954;2023-01-13T05:18:44;10.47;;;2.20;;
5129;SDS011;2583;50.946;6.954;2023-01-13T05:21:11;8.83;;;2.47;;
5129;SDS011;2583;50.946;6.954;2023-01-13T05:23:58;8.98;;;2.40;;
5129;SDS011;2583;50.946;6.954;2023-01-13T05:27:03;11.43;;;3.20;;
5129;SDS011;2583;50.946;6.954;2023-01-13T05:29:30;20.70;;;3.13;;
5129;SDS011;2583;50.946;6.954;2023-01-13T05:31:56;8.27;;;2.73;;
5129;SDS011;2583;50.946;6.954;2023-01-13T05:34:23;9.80;;;2.20;;
5129;SDS011;2583;50.946;6.954;2023-01-13T05:36:50;8.07;;;2.13;;
5129;SDS011;2583;50.946;6.954;2023-01-13T05:39:17;10.23;;;2.43;;
5129;SDS011;2583;50.946;6.954;2023-01-13T05:41:43;10.37;;;2.70;;
5129;SDS011;2583;50.946;6.954;2023-01-13T05:44:29;13.60;;;2.27;;
5129;SDS011;2583;50.946;6.954;2023-01-13T05:46:56;7.03;;;1.60;;
5129;SDS011;2583;50.946;6.954;2023-01-13T05:49:22;12.45;;;2.03;;
5129;SDS011;2583;50.946;6.954;2023-01-13T05:51:49;14.05;;;3.13;;
5129;SDS011;2583;50.946;6.954;2023-01-13T05:54:16;5.07;;;1.30;;
5129;SDS011;2583;50.946;6.954;2023-01-13T05:56:43;14.10;;;2.80;;
5129;SDS011;2583;50.946;6.954;2023-01-13T05:59:09;9.40;;;2.57;;
5129;SDS011;2583;50.946;6.954;2023-01-13T06:01:36;7.57;;;1.50;;
5129;SDS011;2583;50.946;6.954;2023-01-13T06:04:03;10.40;;;1.87;;
5129;SDS011;2583;50.946;6.954;2023-01-13T06:06:30;8.83;;;1.50;;
5129;SDS011;2583;50.946;6.954;2023-01-13T06:08:57;8.25;;;1.67;;
5129;SDS011;2583;50.946;6.954;2023-01-13T06:11:23;7.00;;;1.60;;
5129;SDS011;2583;50.946;6.954;2023-01-13T06:13:50;6.53;;;1.60;;
5129;SDS011;2583;50.946;6.954;2023-01-13T06:16:17;5.90;;;1.27;;
5129;SDS011;2583;50.946;6.954;2023-01-13T06:18:44;5.63;;;2.10;;
5129;SDS011;2583;50.946;6.954;2023-01-13T06:21:11;7.50;;;1.80;;
5129;SDS011;2583;50.946;6.954;2023-01-13T06:23:37;4.47;;;1.00;;
5129;SDS011;2583;50.946;6.954;2023-01-13T06:28:39;6.25;;;1.25;;
5129;SDS011;2583;50.946;6.954;2023-01-13T06:31:06;3.13;;;1.10;;
5129;SDS011;2583;50.946;6.954;2023-01-13T06:33:36;4.23;;;1.30;;
5129;SDS011;2583;50.946;6.954;2023-01-13T06:36:14;2.43;;;1.23;;
5129;SDS011;2583;50.946;6.954;2023-01-13T06:38:47;3.50;;;1.30;;
5129;SDS011;2583;50.946;6.954;2023-01-13T06:41:19;6.40;;;1.30;;
5129;SDS011;2583;50.946;6.954;2023-01-13T06:44:05;6.40;;;1.57;;
5129;SDS011;2583;50.946;6.954;2023-01-13T06:46:32;4.03;;;1.30;;
5129;SDS011;2583;50.946;6.954;2023-01-13T06:49:00;5.90;;;1.07;;
5129;SDS011;2583;50.946;6.954;2023-01-13T06:51:27;5.33;;;1.30;;
5129;SDS011;2583;50.946;6.954;2023-01-13T06:53:53;9.00;;;1.57;;
5129;SDS011;2583;50.946;6.954;2023-01-13T06:56:20;7.93;;;1.83;;
5129;SDS011;2583;50.946;6.954;2023-01-13T06:58:47;4.17;;;1.50;;
5129;SDS011;2583;50.946;6.954;2023-01-13T07:01:13;7.40;;;1.27;;
5129;SDS011;2583;50.946;6.954;2023-01-13T07:03:40;4.53;;;1.60;;
5129;SDS011;2583;50.946;6.954;2023-01-13T07:06:07;8.87;;;1.70;;
5129;SDS011;2583;50.946;6.954;2023-01-13T07:08:34;5.60;;;1.20;;
5129;SDS011;2583;50.946;6.954;2023-01-13T07:11:01;3.83;;;1.00;;
5129;SDS011;2583;50.946;6.954;2023-01-13T07:13:28;3.50;;;1.10;;
5129;SDS011;2583;50.946;6.954;2023-01-13T07:16:15;3.93;;;1.47;;
5129;SDS011;2583;50.946;6.954;2023-01-13T07:18:42;4.23;;;1.00;;
5129;SDS011;2583;50.946;6.954;2023-01-13T07:21:10;5.40;;;1.80;;
5129;SDS011;2583;50.946;6.954;2023-01-13T07:23:39;5.23;;;1.63;;
5129;SDS011;2583;50.946;6.954;2023-01-13T07:26:06;3.42;;;1.52;;
5129;SDS011;2583;50.946;6.954;2023-01-13T07:28:34;4.30;;;0.97;;
5129;SDS011;2583;50.946;6.954;2023-01-13T07:31:02;4.20;;;1.07;;
5129;SDS011;2583;50.946;6.954;2023-01-13T07:33:29;3.20;;;1.30;;
5129;SDS011;2583;50.946;6.954;2023-01-13T07:36:00;2.92;;;1.50;;
5129;SDS011;2583;50.946;6.954;2023-01-13T07:38:29;4.30;;;1.20;;
5129;SDS011;2583;50.946;6.954;2023-01-13T07:40:57;8.53;;;1.00;;
5129;SDS011;2583;50.946;6.954;2023-01-13T07:43:23;6.47;;;1.20;;
5129;SDS011;2583;50.946;6.954;2023-01-13T07:46:04;3.67;;;1.00;;
5129;SDS011;2583;50.946;6.954;2023-01-13T07:48:32;3.90;;;0.95;;
5129;SDS011;2583;50.946;6.954;2023-01-13T07:51:00;2.80;;;0.93;;
5129;SDS011;2583;50.946;6.954;2023-01-13T07:53:28;2.58;;;0.80;;
5129;SDS011;2583;50.946;6.954;2023-01-13T07:55:58;2.57;;;1.23;;
5129;SDS011;2583;50.946;6.954;2023-01-13T07:58:26;5.20;;;1.00;;
5129;SDS011;2583;50.946;6.954;2023-01-13T08:00:54;3.00;;;1.10;;
5129;SDS011;2583;50.946;6.954;2023-01-13T08:03:21;4.97;;;0.80;;
5129;SDS011;2583;50.946;6.954;2023-01-13T08:05:49;2.27;;;0.87;;
5129;SDS011;2583;50.946;6.954;2023-01-13T08:08:16;3.30;;;1.00;;
5129;SDS011;2583;50.946;6.954;2023-01-13T08:10:43;6.43;;;0.93;;
5129;SDS011;2583;50.946;6.954;2023-01-13T08:13:11;3.30;;;0.97;;
5129;SDS011;2583;50.946;6.954;2023-01-13T08:15:43;5.73;;;1.17;;
5129;SDS011;2583;50.946;6.954;2023-01-13T08:18:11;3.73;;;1.03;;
5129;SDS011;2583;50.946;6.954;2023-01-13T08:20:38;7.22;;;1.27;;
5129;SDS011;2583;50.946;6.954;2023-01-13T08:23:05;5.23;;;1.00;;
5129;SDS011;2583;50.946;6.954;2023-01-13T08:25:33;5.73;;;1.73;;
5129;SDS011;2583;50.946;6.954;2023-01-13T08:28:00;2.83;;;0.93;;
5129;SDS011;2583;50.946;6.954;2023-01-13T08:30:27;5.87;;;1.10;;
5129;SDS011;2583;50.946;6.954;2023-01-13T08:32:54;4.87;;;1.50;;
5129;SDS011;2583;50.946;6.954;2023-01-13T08:35:21;5.37;;;1.40;;
5129;SDS011;2583;50.946;6.954;2023-01-13T08:37:48;5.57;;;1.53;;
5129;SDS011;2583;50.946;6.954;2023-01-13T08:40:16;4.13;;;1.43;;
5129;SDS011;2583;50.946;6.954;2023-01-13T08:42:44;3.73;;;1.47;;
5129;SDS011;2583;50.946;6.954;2023-01-13T08:45:13;9.93;;;2.23;;
5129;SDS011;2583;50.946;6.954;2023-01-13T08:47:40;8.13;;;1.57;;
5129;SDS011;2583;50.946;6.954;2023-01-13T08:50:07;8.07;;;1.63;;
5129;SDS011;2583;50.946;6.954;2023-01-13T08:52:35;7.20;;;2.07;;
5129;SDS011;2583;50.946;6.954;2023-01-13T08:55:02;10.00;;;1.67;;
5129;SDS011;2583;50.946;6.954;2023-01-13T08:57:30;9.20;;;2.40;;
5129;SDS011;2583;50.946;6.954;2023-01-13T08:59:56;6.90;;;2.23;;
5129;SDS011;2583;50.946;6.954;2023-01-13T09:02:23;8.80;;;1.93;;
5129;SDS011;2583;50.946;6.954;2023-01-13T09:04:51;10.73;;;2.50;;
5129;SDS011;2583;50.946;6.954;2023-01-13T09:07:18;10.03;;;2.00;;
5129;SDS011;2583;50.946;6.954;2023-01-13T09:09:45;10.07;;;2.23;;
5129;SDS011;2583;50.946;6.954;2023-01-13T09:12:13;6.97;;;2.13;;
5129;SDS011;2583;50.946;6.954;2023-01-13T09:14:59;6.40;;;1.93;;
5129;SDS011;2583;50.946;6.954;2023-01-13T09:17:27;8.50;;;1.77;;
5129;SDS011;2583;50.946;6.954;2023-01-13T09:19:54;10.03;;;2.80;;
5129;SDS011;2583;50.946;6.954;2023-01-13T09:22:20;7.10;;;3.33;;
5129;SDS011;2583;50.946;6.954;2023-01-13T09:24:52;11.90;;;2.30;;
5129;SDS011;2583;50.946;6.954;2023-01-13T09:27:20;9.93;;;2.53;;
5129;SDS011;2583;50.946;6.954;2023-01-13T09:29:48;9.30;;;3.13;;
5129;SDS011;2583;50.946;6.954;2023-01-13T09:32:15;5.32;;;2.03;;
5129;SDS011;2583;50.946;6.954;2023-01-13T09:34:42;8.20;;;2.20;;
5129;SDS011;2583;50.946;6.954;2023-01-13T09:39:55;12.63;;;2.58;;
5129;SDS011;2583;50.946;6.954;2023-01-13T09:45:24;13.50;;;2.73;;
5129;SDS011;2583;50.946;6.954;2023-01-13T09:48:03;14.23;;;2.20;;
5129;SDS011;2583;50.946;6.954;2023-01-13T09:50:47;13.47;;;3.30;;
5129;SDS011;2583;50.946;6.954;2023-01-13T09:53:25;13.37;;;2.60;;
5129;SDS011;2583;50.946;6.954;2023-01-13T09:55:58;9.20;;;3.07;;
5129;SDS011;2583;50.946;6.954;2023-01-13T09:58:25;13.03;;;2.90;;
5129;SDS011;2583;50.946;6.954;2023-01-13T10:01:02;8.97;;;2.10;;
5129;SDS011;2583;50.946;6.954;2023-01-13T10:03:51;14.87;;;2.43;;
5129;SDS011;2583;50.946;6.954;2023-01-13T10:08:59;31.03;;;3.70;;
5129;SDS011;2583;50.946;6.954;2023-01-13T10:11:35;10.83;;;3.50;;
5129;SDS011;2583;50.946;6.954;2023-01-13T10:14:51;10.98;;;2.88;;
5129;SDS011;2583;50.946;6.954;2023-01-13T10:17:35;16.10;;;4.30;;
5129;SDS011;2583;50.946;6.954;2023-01-13T10:28:55;15.07;;;2.43;;
5129;SDS011;2583;50.946;6.954;2023-01-13T10:31:24;10.90;;;3.43;;
5129;SDS011;2583;50.946;6.954;2023-01-13T10:33:58;15.97;;;2.47;;
5129;SDS011;2583;50.946;6.954;2023-01-13T10:36:26;6.50;;;2.30;;
5129;SDS011;2583;50.946;6.954;2023-01-13T10:38:53;15.90;;;3.27;;
5129;SDS011;2583;50.946;6.954;2023-01-13T10:41:32;10.48;;;3.13;;
5129;SDS011;2583;50.946;6.954;2023-01-13T10:44:05;16.20;;;2.80;;
5129;SDS011;2583;50.946;6.954;2023-01-13T10:46:50;10.67;;;2.40;;
5129;SDS011;2583;50.946;6.954;2023-01-13T10:49:34;12.63;;;2.53;;
5129;SDS011;2583;50.946;6.954;2023-01-13T10:52:18;8.53;;;2.03;;
5129;SDS011;2583;50.946;6.954;2023-01-13T10:54:56;12.73;;;2.23;;
5129;SDS011;2583;50.946;6.954;2023-01-13T10:57:24;10.43;;;2.57;;
5129;SDS011;2583;50.946;6.954;2023-01-13T10:59:52;9.67;;;3.60;;
5129;SDS011;2583;50.946;6.954;2023-01-13T11:07:21;11.70;;;2.30;;
5129;SDS011;2583;50.946;6.954;2023-01-13T11:12:45;13.43;;;2.90;;
5129;SDS011;2583;50.946;6.954;2023-01-13T11:15:19;14.27;;;2.50;;
5129;SDS011;2583;50.946;6.954;2023-01-13T11:17:51;11.00;;;2.97;;
5129;SDS011;2583;50.946;6.954;2023-01-13T11:20:27;8.10;;;2.57;;
5129;SDS011;2583;50.946;6.954;2023-01-13T11:23:00;11.47;;;2.30;;
5129;SDS011;2583;50.946;6.954;2023-01-13T11:25:51;12.03;;;3.10;;
5129;SDS011;2583;50.946;6.954;2023-01-13T11:28:35;11.27;;;2.70;;
5129;SDS011;2583;50.946;6.954;2023-01-13T11:31:17;14.73;;;2.60;;
5129;SDS011;2583;50.946;6.954;2023-01-13T11:33:51;15.37;;;3.53;;
5129;SDS011;2583;50.946;6.954;2023-01-13T11:36:44;7.90;;;2.07;;
5129;SDS011;2583;50.946;6.954;2023-01-13T11:45:06;16.50;;;2.57;;
5129;SDS011;2583;50.946;6.954;2023-01-13T11:47:46;23.70;;;3.27;;
5129;SDS011;2583;50.946;6.954;2023-01-13T12:01:41;13.10;;;2.20;;
5129;SDS011;2583;50.946;6.954;2023-01-13T12:07:38;11.47;;;2.67;;
5129;SDS011;2583;50.946;6.954;2023-01-13T12:21:21;7.90;;;2.60;;
5129;SDS011;2583;50.946;6.954;2023-01-13T12:26:46;8.97;;;2.17;;
5129;SDS011;2583;50.946;6.954;2023-01-13T12:29:19;10.13;;;2.20;;
5129;SDS011;2583;50.946;6.954;2023-01-13T12:31:55;10.87;;;2.20;;
5129;SDS011;2583;50.946;6.954;2023-01-13T12:35:01;6.23;;;2.50;;
5129;SDS011;2583;50.946;6.954;2023-01-13T12:37:36;7.23;;;1.63;;
5129;SDS011;2583;50.946;6.954;2023-01-13T12:43:25;5.57;;;1.67;;
5129;SDS011;2583;50.946;6.954;2023-01-13T12:53:54;10.03;;;2.37;;
5129;SDS011;2583;50.946;6.954;2023-01-13T13:01:46;8.60;;;3.20;;
5129;SDS011;2583;50.946;6.954;2023-01-13T13:06:48;12.53;;;2.57;;
5129;SDS011;2583;50.946;6.954;2023-01-13T13:09:23;13.77;;;2.60;;
5129;SDS011;2583;50.946;6.954;2023-01-13T13:11:58;10.80;;;3.17;;
5129;SDS011;2583;50.946;6.954;2023-01-13T13:34:29;9.43;;;2.43;;
5129;SDS011;2583;50.946;6.954;2023-01-13T13:40:32;6.67;;;2.80;;
5129;SDS011;2583;50.946;6.954;2023-01-13T13:43:24;7.63;;;2.53;;
5129;SDS011;2583;50.946;6.954;2023-01-13T13:46:24;10.13;;;2.30;;
5129;SDS011;2583;50.946;6.954;2023-01-13T13:49:15;5.97;;;1.63;;
5129;SDS011;2583;50.946;6.954;2023-01-13T13:54:28;11.60;;;2.67;;
5129;SDS011;2583;50.946;6.954;2023-01-13T13:56:56;13.50;;;2.70;;
5129;SDS011;2583;50.946;6.954;2023-01-13T13:59:25;11.20;;;2.60;;
5129;SDS011;2583;50.946;6.954;2023-01-13T14:01:56;10.13;;;2.40;;
5129;SDS011;2583;50.946;6.954;2023-01-13T14:04:29;13.00;;;3.17;;
5129;SDS011;2583;50.946;6.954;2023-01-13T14:06:59;7.17;;;2.00;;
5129;SDS011;2583;50.946;6.954;2023-01-13T14:09:38;13.95;;;2.80;;
5129;SDS011;2583;50.946;6.954;2023-01-13T14:12:16;9.10;;;2.40;;
5129;SDS011;2583;50.946;6.954;2023-01-13T14:14:51;12.27;;;2.30;;
5129;SDS011;2583;50.946;6.954;2023-01-13T14:17:23;14.53;;;2.67;;
5129;SDS011;2583;50.946;6.954;2023-01-13T14:20:02;8.33;;;1.97;;
5129;SDS011;2583;50.946;6.954;2023-01-13T14:22:31;24.77;;;3.13;;
5129;SDS011;2583;50.946;6.954;2023-01-13T14:24:58;12.03;;;3.30;;
5129;SDS011;2583;50.946;6.954;2023-01-13T14:27:27;7.77;;;2.83;;
5129;SDS011;2583;50.946;6.954;2023-01-13T14:29:57;8.13;;;2.67;;
5129;SDS011;2583;50.946;6.954;2023-01-13T14:32:30;7.53;;;3.20;;
5129;SDS011;2583;50.946;6.954;2023-01-13T14:35:00;5.40;;;1.93;;
5129;SDS011;2583;50.946;6.954;2023-01-13T14:39:53;4.87;;;2.30;;
5129;SDS011;2583;50.946;6.954;2023-01-13T14:42:20;8.40;;;1.87;;
5129;SDS011;2583;50.946;6.954;2023-01-13T14:44:48;10.03;;;2.70;;
5129;SDS011;2583;50.946;6.954;2023-01-13T14:47:17;13.63;;;2.65;;
5129;SDS011;2583;50.946;6.954;2023-01-13T14:49:59;8.20;;;2.70;;
5129;SDS011;2583;50.946;6.954;2023-01-13T14:52:31;9.30;;;2.60;;
5129;SDS011;2583;50.946;6.954;2023-01-13T14:57:36;7.30;;;1.88;;
5129;SDS011;2583;50.946;6.954;2023-01-13T15:00:16;9.83;;;2.93;;
5129;SDS011;2583;50.946;6.954;2023-01-13T15:16:19;11.90;;;2.83;;
5129;SDS011;2583;50.946;6.954;2023-01-13T15:18:48;17.83;;;3.43;;
5129;SDS011;2583;50.946;6.954;2023-01-13T15:21:15;19.23;;;3.15;;
5129;SDS011;2583;50.946;6.954;2023-01-13T15:23:43;10.83;;;3.20;;
5129;SDS011;2583;50.946;6.954;2023-01-13T15:28:47;16.13;;;2.33;;
5129;SDS011;2583;50.946;6.954;2023-01-13T15:31:15;9.70;;;3.05;;
5129;SDS011;2583;50.946;6.954;2023-01-13T15:33:42;12.43;;;3.17;;
5129;SDS011;2583;50.946;6.954;2023-01-13T15:36:19;15.87;;;2.90;;
5129;SDS011;2583;50.946;6.954;2023-01-13T15:38:58;11.48;;;2.65;;
5129;SDS011;2583;50.946;6.954;2023-01-13T15:41:26;10.27;;;2.80;;
5129;SDS011;2583;50.946;6.954;2023-01-13T15:44:12;5.40;;;2.33;;
5129;SDS011;2583;50.946;6.954;2023-01-13T15:47:02;13.83;;;2.77;;
5129;SDS011;2583;50.946;6.954;2023-01-13T15:52:24;13.97;;;2.87;;
5129;SDS011;2583;50.946;6.954;2023-01-13T15:54:52;8.30;;;2.57;;
5129;SDS011;2583;50.946;6.954;2023-01-13T15:59:52;8.17;;;2.27;;
5129;SDS011;2583;50.946;6.954;2023-01-13T16:02:21;10.83;;;2.80;;
5129;SDS011;2583;50.946;6.954;2023-01-13T16:04:49;9.40;;;2.93;;
5129;SDS011;2583;50.946;6.954;2023-01-13T16:07:16;14.50;;;3.57;;
5129;SDS011;2583;50.946;6.954;2023-01-13T16:09:44;10.60;;;2.67;;
5129;SDS011;2583;50.946;6.954;2023-01-13T16:12:11;15.30;;;2.83;;
5129;SDS011;2583;50.946;6.954;2023-01-13T16:14:39;16.40;;;2.93;;
5129;SDS011;2583;50.946;6.954;2023-01-13T16:17:11;14.97;;;3.40;;
5129;SDS011;2583;50.946;6.954;2023-01-13T16:19:42;17.13;;;3.10;;
5129;SDS011;2583;50.946;6.954;2023-01-13T16:22:10;13.63;;;2.80;;
5129;SDS011;2583;50.946;6.954;2023-01-13T16:24:39;15.63;;;5.07;;
5129;SDS011;2583;50.946;6.954;2023-01-13T16:27:14;12.97;;;3.70;;
5129;SDS011;2583;50.946;6.954;2023-01-13T16:29:43;12.77;;;3.23;;
5129;SDS011;2583;50.946;6.954;2023-01-13T16:32:11;10.30;;;2.90;;
5129;SDS011;2583;50.946;6.954;2023-01-13T16:34:38;10.60;;;3.37;;
5129;SDS011;2583;50.946;6.954;2023-01-13T16:37:08;15.87;;;3.47;;
5129;SDS011;2583;50.946;6.954;2023-01-13T16:39:47;14.97;;;3.67;;
5129;SDS011;2583;50.946;6.954;2023-01-13T16:42:13;19.03;;;3.30;;
5129;SDS011;2583;50.946;6.954;2023-01-13T16:44:40;19.90;;;4.57;;
5129;SDS011;2583;50.946;6.954;2023-01-13T16:47:11;28.55;;;4.03;;
5129;SDS011;2583;50.946;6.954;2023-01-13T16:49:40;15.53;;;3.50;;
5129;SDS011;2583;50.946;6.954;2023-01-13T16:52:07;9.70;;;2.67;;
5129;SDS011;2583;50.946;6.954;2023-01-13T16:54:34;8.40;;;2.80;;
5129;SDS011;2583;50.946;6.954;2023-01-13T16:57:01;11.50;;;2.90;;
5129;SDS011;2583;50.946;6.954;2023-01-13T16:59:28;7.10;;;2.53;;
5129;SDS011;2583;50.946;6.954;2023-01-13T17:01:55;21.25;;;4.50;;
5129;SDS011;2583;50.946;6.954;2023-01-13T17:04:21;6.60;;;2.60;;
5129;SDS011;2583;50.946;6.954;2023-01-13T17:06:52;14.10;;;3.37;;
5129;SDS011;2583;50.946;6.954;2023-01-13T17:09:25;12.65;;;2.88;;
5129;SDS011;2583;50.946;6.954;2023-01-13T17:11:53;15.63;;;2.60;;
5129;SDS011;2583;50.946;6.954;2023-01-13T17:14:21;9.03;;;2.50;;
5129;SDS011;2583;50.946;6.954;2023-01-13T17:16:50;7.27;;;2.17;;
5129;SDS011;2583;50.946;6.954;2023-01-13T17:19:20;5.03;;;1.80;;
5129;SDS011;2583;50.946;6.954;2023-01-13T17:21:48;8.00;;;2.50;;
5129;SDS011;2583;50.946;6.954;2023-01-13T17:24:16;9.33;;;2.40;;
5129;SDS011;2583;50.946;6.954;2023-01-13T17:26:44;7.57;;;2.10;;
5129;SDS011;2583;50.946;6.954;2023-01-13T17:29:15;15.50;;;2.70;;
5129;SDS011;2583;50.946;6.954;2023-01-13T17:31:42;10.63;;;2.13;;
5129;SDS011;2583;50.946;6.954;2023-01-13T17:34:09;12.60;;;2.53;;
5129;SDS011;2583;50.946;6.954;2023-01-13T17:36:37;7.90;;;2.30;;
5129;SDS011;2583;50.946;6.954;2023-01-13T17:39:04;13.97;;;2.70;;
5129;SDS011;2583;50.946;6.954;2023-01-13T17:41:31;10.33;;;2.63;;
5129;SDS011;2583;50.946;6.954;2023-01-13T17:43:57;12.83;;;2.90;;
5129;SDS011;2583;50.946;6.954;2023-01-13T17:46:24;12.77;;;3.00;;
5129;SDS011;2583;50.946;6.954;2023-01-13T17:48:51;8.87;;;2.83;;
5129;SDS011;2583;50.946;6.954;2023-01-13T17:51:19;18.10;;;2.50;;
5129;SDS011;2583;50.946;6.954;2023-01-13T17:53:47;9.03;;;2.50;;
5129;SDS011;2583;50.946;6.954;2023-01-13T17:56:14;16.20;;;4.17;;
5129;SDS011;2583;50.946;6.954;2023-01-13T17:58:42;10.13;;;2.70;;
5129;SDS011;2583;50.946;6.954;2023-01-13T18:01:14;15.70;;;3.40;;
5129;SDS011;2583;50.946;6.954;2023-01-13T18:03:42;11.77;;;2.90;;
5129;SDS011;2583;50.946;6.954;2023-01-13T18:06:13;11.70;;;2.17;;
5129;SDS011;2583;50.946;6.954;2023-01-13T18:08:45;11.47;;;3.37;;
5129;SDS011;2583;50.946;6.954;2023-01-13T18:11:13;16.50;;;2.97;;
5129;SDS011;2583;50.946;6.954;2023-01-13T18:13:40;13.17;;;3.23;;
5129;SDS011;2583;50.946;6.954;2023-01-13T18:16:12;15.40;;;3.00;;
5129;SDS011;2583;50.946;6.954;2023-01-13T18:18:41;16.23;;;2.97;;
5129;SDS011;2583;50.946;6.954;2023-01-13T18:21:20;18.63;;;3.27;;
5129;SDS011;2583;50.946;6.954;2023-01-13T18:24:11;14.60;;;3.40;;
5129;SDS011;2583;50.946;6.954;2023-01-13T18:26:58;18.10;;;3.60;;
5129;SDS011;2583;50.946;6.954;2023-01-13T18:29:44;11.10;;;3.70;;
5129;SDS011;2583;50.946;6.954;2023-01-13T18:32:11;14.27;;;3.40;;
5129;SDS011;2583;50.946;6.954;2023-01-13T18:34:39;14.43;;;3.80;;